Check out our new BloomSky Weather System.

Active alerts


No alerts


Thunder radar  blitzortung!


Rain radar more information rain snow radar


Visit our other weather sites:

Template documentation
and downloads

And another site



Weather Underground History page Text

Daily Summary for November 18, 2017 Units:  English    Metric   Both
« Previous Day
Next Day »
Daily Weekly Monthly Yearly Custom
  High: Low: Average:
Temperature: 83.7 °F 56.3 °F 72.1 °F
Dew Point: 72.9 °F 43.0 °F 62.7 °F
Humidity: 96 % 39 % 75 %
Wind Speed: 17.0 mph 0.0 mph 5 mph
Wind Gust: 22.0 mph - -
Wind:- - WSW
Pressure: 30.20 in 29.80 in -
Precipitation: 0.00 in    
Historical Graphs
 
 
Tabular Data for November 18, 2017
Time Temperature Dew Point Pressure Wind Wind Speed Wind Gust Humidity Rainfall Rate (Hourly)
00:03 71.6 °F 69.1 °F 29.85 in South 6.0 mph 14.0 mph 92 % 0.00 in
00:08 71.6 °F 69.1 °F 29.85 in SSW 2.0 mph 14.0 mph 92 % 0.00 in
00:14 71.4 °F 68.9 °F 29.85 in South 4.0 mph 14.0 mph 92 % 0.00 in
00:19 71.4 °F 68.9 °F 29.86 in SSW 3.0 mph 12.0 mph 92 % 0.00 in
00:24 71.2 °F 68.7 °F 29.85 in SW 4.0 mph 12.0 mph 92 % 0.00 in
00:29 71.2 °F 69.1 °F 29.85 in SSE 3.0 mph 10.0 mph 93 % 0.00 in
00:34 71.2 °F 69.1 °F 29.85 in South 1.0 mph 10.0 mph 93 % 0.00 in
00:39 71.2 °F 69.1 °F 29.85 in SW 4.0 mph 11.0 mph 93 % 0.00 in
00:44 71.2 °F 69.1 °F 29.85 in SE 3.0 mph 11.0 mph 93 % 0.00 in
00:54 71.1 °F 68.9 °F 29.85 in SSW 4.0 mph 8.0 mph 93 % 0.00 in
00:59 71.1 °F 68.9 °F 29.84 in SSW 3.0 mph 8.0 mph 93 % 0.00 in
01:04 71.1 °F 68.9 °F 29.84 in South 5.0 mph 10.0 mph 93 % 0.00 in
01:09 71.1 °F 68.9 °F 29.84 in SSW 4.0 mph 10.0 mph 93 % 0.00 in
01:14 71.1 °F 68.9 °F 29.84 in SSW 8.0 mph 10.0 mph 93 % 0.00 in
01:19 71.1 °F 68.9 °F 29.84 in South 5.0 mph 10.0 mph 93 % 0.00 in
01:24 71.1 °F 68.9 °F 29.84 in SSW 3.0 mph 10.0 mph 93 % 0.00 in
01:29 70.9 °F 68.7 °F 29.84 in South 4.0 mph 10.0 mph 93 % 0.00 in
01:34 70.9 °F 68.7 °F 29.84 in SSW 3.0 mph 9.0 mph 93 % 0.00 in
01:39 70.9 °F 68.7 °F 29.83 in SE 6.0 mph 9.0 mph 93 % 0.00 in
01:44 70.9 °F 68.7 °F 29.83 in SSW 8.0 mph 10.0 mph 93 % 0.00 in
01:49 70.7 °F 68.5 °F 29.83 in SW 4.0 mph 10.0 mph 93 % 0.00 in
01:54 70.5 °F 68.4 °F 29.83 in SW 3.0 mph 10.0 mph 93 % 0.00 in
01:59 70.7 °F 68.9 °F 29.83 in South 4.0 mph 10.0 mph 94 % 0.00 in
02:04 70.7 °F 68.9 °F 29.83 in South 5.0 mph 9.0 mph 94 % 0.00 in
02:09 70.7 °F 68.9 °F 29.83 in SW 3.0 mph 9.0 mph 94 % 0.00 in
02:14 70.9 °F 69.1 °F 29.83 in South 3.0 mph 9.0 mph 94 % 0.00 in
02:19 70.9 °F 69.1 °F 29.83 in SSE 3.0 mph 6.0 mph 94 % 0.00 in
02:20 70.9 °F 69.1 °F 29.83 in SE 2.0 mph 6.0 mph 94 % 0.00 in
02:25 70.9 °F 69.1 °F 29.82 in SE 4.0 mph 6.0 mph 94 % 0.00 in
02:30 70.7 °F 68.9 °F 29.82 in SSW 2.0 mph 6.0 mph 94 % 0.00 in
02:35 70.7 °F 68.9 °F 29.82 in South 2.0 mph 7.0 mph 94 % 0.00 in
02:40 70.7 °F 68.9 °F 29.82 in SSW 2.0 mph 7.0 mph 94 % 0.00 in
02:45 70.9 °F 69.1 °F 29.82 in SSE 3.0 mph 7.0 mph 94 % 0.00 in
02:50 70.9 °F 69.1 °F 29.82 in SE 4.0 mph 9.0 mph 94 % 0.00 in
02:55 70.9 °F 69.1 °F 29.81 in SSE 5.0 mph 9.0 mph 94 % 0.00 in
03:00 71.1 °F 69.3 °F 29.81 in SW 7.0 mph 9.0 mph 94 % 0.00 in
03:05 71.1 °F 69.3 °F 29.81 in ESE 7.0 mph 9.0 mph 94 % 0.00 in
03:10 71.2 °F 69.4 °F 29.81 in SSW 6.0 mph 9.0 mph 94 % 0.00 in
03:15 71.2 °F 69.4 °F 29.81 in South 3.0 mph 11.0 mph 94 % 0.00 in
03:20 71.2 °F 69.4 °F 29.81 in South 4.0 mph 12.0 mph 94 % 0.00 in
03:25 71.4 °F 69.6 °F 29.81 in SSW 7.0 mph 12.0 mph 94 % 0.00 in
03:30 71.4 °F 69.6 °F 29.81 in SSE 3.0 mph 12.0 mph 94 % 0.00 in
03:35 71.6 °F 69.8 °F 29.81 in SSW 2.0 mph 11.0 mph 94 % 0.00 in
03:40 71.6 °F 69.8 °F 29.81 in SSW 1.0 mph 11.0 mph 94 % 0.00 in
03:45 71.6 °F 69.8 °F 29.81 in SW 6.0 mph 11.0 mph 94 % 0.00 in
03:50 71.6 °F 69.8 °F 29.80 in SSW 2.0 mph 11.0 mph 94 % 0.00 in
03:55 71.6 °F 69.8 °F 29.81 in South 6.0 mph 11.0 mph 94 % 0.00 in
04:00 71.6 °F 69.8 °F 29.81 in SW 3.0 mph 11.0 mph 94 % 0.00 in
04:05 71.6 °F 69.8 °F 29.81 in SW 5.0 mph 10.0 mph 94 % 0.00 in
04:10 71.6 °F 69.8 °F 29.81 in SSW 3.0 mph 10.0 mph 94 % 0.00 in
04:15 71.6 °F 69.8 °F 29.81 in South 4.0 mph 10.0 mph 94 % 0.00 in
04:21 71.8 °F 70.0 °F 29.80 in SW 5.0 mph 10.0 mph 94 % 0.00 in
04:26 71.8 °F 70.0 °F 29.80 in SW 3.0 mph 11.0 mph 94 % 0.00 in
04:31 71.8 °F 70.0 °F 29.81 in SW 5.0 mph 11.0 mph 94 % 0.00 in
04:36 71.8 °F 70.0 °F 29.81 in SSW 5.0 mph 11.0 mph 94 % 0.00 in
04:41 71.8 °F 70.0 °F 29.81 in WNW 1.0 mph 11.0 mph 94 % 0.00 in
04:46 71.8 °F 70.0 °F 29.80 in SSW 1.0 mph 11.0 mph 94 % 0.00 in
04:51 71.8 °F 70.0 °F 29.81 in Calm   11.0 mph 94 % 0.00 in
04:56 71.6 °F 69.8 °F 29.80 in SSW 4.0 mph 11.0 mph 94 % 0.00 in
05:01 71.6 °F 69.8 °F 29.80 in SW 4.0 mph 11.0 mph 94 % 0.00 in
05:06 71.6 °F 69.8 °F 29.80 in SW 4.0 mph 10.0 mph 94 % 0.00 in
05:11 71.6 °F 69.8 °F 29.80 in SW 6.0 mph 10.0 mph 94 % 0.00 in
05:16 71.4 °F 69.6 °F 29.81 in Calm   11.0 mph 94 % 0.00 in
05:21 71.4 °F 69.6 °F 29.81 in SSW 2.0 mph 11.0 mph 94 % 0.00 in
05:26 71.4 °F 70.0 °F 29.81 in SW 6.0 mph 11.0 mph 95 % 0.00 in
05:31 71.4 °F 70.0 °F 29.81 in SW 5.0 mph 10.0 mph 95 % 0.00 in
05:36 71.4 °F 70.0 °F 29.81 in SW 2.0 mph 10.0 mph 95 % 0.00 in
05:41 71.4 °F 70.0 °F 29.81 in SW 1.0 mph 9.0 mph 95 % 0.00 in
05:46 71.4 °F 70.0 °F 29.81 in Calm   9.0 mph 95 % 0.00 in
05:51 71.2 °F 69.8 °F 29.81 in SSW 3.0 mph 7.0 mph 95 % 0.00 in
05:56 71.2 °F 69.8 °F 29.81 in West 1.0 mph 7.0 mph 95 % 0.00 in
06:01 71.2 °F 69.8 °F 29.81 in SSW 4.0 mph 7.0 mph 95 % 0.00 in
06:06 71.2 °F 69.8 °F 29.81 in SW 4.0 mph 10.0 mph 95 % 0.00 in
06:11 71.2 °F 69.8 °F 29.82 in SW 4.0 mph 10.0 mph 95 % 0.00 in
06:16 71.2 °F 69.8 °F 29.82 in SSE 3.0 mph 10.0 mph 95 % 0.00 in
06:21 71.2 °F 69.8 °F 29.82 in SW 2.0 mph 8.0 mph 95 % 0.00 in
06:26 71.2 °F 69.8 °F 29.82 in SSW 3.0 mph 8.0 mph 95 % 0.00 in
06:31 71.2 °F 69.8 °F 29.82 in Calm   8.0 mph 95 % 0.00 in
06:36 71.1 °F 69.6 °F 29.82 in SSE 1.0 mph 8.0 mph 95 % 0.00 in
06:38 71.1 °F 69.6 °F 29.82 in SSW 4.0 mph 8.0 mph 95 % 0.00 in
06:43 71.1 °F 69.6 °F 29.83 in SSW 4.0 mph 8.0 mph 95 % 0.00 in
06:48 71.1 °F 69.6 °F 29.83 in SW 6.0 mph 7.0 mph 95 % 0.00 in
06:53 71.1 °F 69.8 °F 29.83 in SW 2.0 mph 8.0 mph 96 % 0.00 in
06:58 71.1 °F 69.8 °F 29.83 in SSE 3.0 mph 8.0 mph 96 % 0.00 in
07:03 71.1 °F 69.8 °F 29.83 in SE 2.0 mph 8.0 mph 96 % 0.00 in
07:08 71.2 °F 70.0 °F 29.83 in SW 2.0 mph 6.0 mph 96 % 0.00 in
07:13 71.2 °F 70.0 °F 29.83 in SW 3.0 mph 11.0 mph 96 % 0.00 in
07:19 71.4 °F 70.2 °F 29.83 in South 5.0 mph 11.0 mph 96 % 0.00 in
07:24 71.4 °F 70.0 °F 29.83 in South 3.0 mph 11.0 mph 95 % 0.00 in
07:29 71.4 °F 70.0 °F 29.83 in SW 2.0 mph 8.0 mph 95 % 0.00 in
07:34 71.6 °F 70.2 °F 29.83 in SSW 2.0 mph 8.0 mph 95 % 0.00 in
07:39 71.8 °F 70.3 °F 29.84 in SW 4.0 mph 9.0 mph 95 % 0.00 in
07:44 71.8 °F 70.3 °F 29.84 in WSW 2.0 mph 9.0 mph 95 % 0.00 in
07:49 72.0 °F 70.5 °F 29.84 in SW 3.0 mph 9.0 mph 95 % 0.00 in
07:54 72.1 °F 70.7 °F 29.84 in SSW 6.0 mph 11.0 mph 95 % 0.00 in
07:59 72.1 °F 70.7 °F 29.84 in SW 2.0 mph 11.0 mph 95 % 0.00 in
08:04 72.3 °F 70.9 °F 29.84 in SW 8.0 mph 11.0 mph 95 % 0.00 in
08:09 72.3 °F 70.5 °F 29.84 in SSW 3.0 mph 12.0 mph 94 % 0.00 in
08:14 72.7 °F 70.9 °F 29.84 in SSW 2.0 mph 12.0 mph 94 % 0.00 in
08:19 72.7 °F 70.9 °F 29.84 in WSW 7.0 mph 12.0 mph 94 % 0.00 in
08:24 72.9 °F 71.1 °F 29.84 in SW 5.0 mph 9.0 mph 94 % 0.00 in
08:29 73.0 °F 71.2 °F 29.84 in SW 2.0 mph 12.0 mph 94 % 0.00 in
08:34 73.2 °F 71.1 °F 29.84 in SSW 6.0 mph 12.0 mph 93 % 0.00 in
08:39 73.6 °F 71.4 °F 29.84 in SW 5.0 mph 12.0 mph 93 % 0.00 in
08:44 73.6 °F 71.4 °F 29.84 in SSW 3.0 mph 11.0 mph 93 % 0.00 in
08:49 73.9 °F 71.8 °F 29.84 in SSE 2.0 mph 11.0 mph 93 % 0.00 in
08:54 74.1 °F 71.6 °F 29.84 in SSW 6.0 mph 10.0 mph 92 % 0.00 in
08:59 74.3 °F 71.4 °F 29.84 in SW 7.0 mph 12.0 mph 91 % 0.00 in
09:04 74.5 °F 71.6 °F 29.85 in South 3.0 mph 13.0 mph 91 % 0.00 in
09:09 74.5 °F 71.6 °F 29.84 in SSW 5.0 mph 13.0 mph 91 % 0.00 in
09:14 74.7 °F 71.8 °F 29.85 in SW 8.0 mph 13.0 mph 91 % 0.00 in
09:19 74.8 °F 72.0 °F 29.85 in SW 2.0 mph 13.0 mph 91 % 0.00 in
09:24 75.0 °F 72.0 °F 29.85 in SW 9.0 mph 13.0 mph 90 % 0.00 in
09:29 75.2 °F 72.1 °F 29.85 in SW 6.0 mph 13.0 mph 90 % 0.00 in
09:34 75.4 °F 72.0 °F 29.84 in SW 8.0 mph 13.0 mph 89 % 0.00 in
09:39 75.6 °F 72.1 °F 29.84 in SSW 5.0 mph 13.0 mph 89 % 0.00 in
09:44 75.7 °F 72.3 °F 29.84 in SSW 6.0 mph 13.0 mph 89 % 0.00 in
09:49 75.9 °F 72.5 °F 29.84 in SW 5.0 mph 13.0 mph 89 % 0.00 in
09:54 76.3 °F 72.5 °F 29.84 in SW 5.0 mph 14.0 mph 88 % 0.00 in
09:59 76.3 °F 72.1 °F 29.85 in West 5.0 mph 15.0 mph 87 % 0.00 in
10:04 76.3 °F 72.1 °F 29.85 in South 3.0 mph 15.0 mph 87 % 0.00 in
10:09 76.5 °F 72.3 °F 29.86 in SSW 2.0 mph 15.0 mph 87 % 0.00 in
10:14 76.3 °F 71.8 °F 29.86 in WSW 6.0 mph 15.0 mph 86 % 0.00 in
10:19 76.5 °F 72.3 °F 29.86 in WSW 1.0 mph 12.0 mph 87 % 0.00 in
10:24 76.6 °F 72.1 °F 29.86 in WSW 4.0 mph 11.0 mph 86 % 0.00 in
10:29 76.6 °F 71.8 °F 29.86 in WSW 4.0 mph 11.0 mph 85 % 0.00 in
10:35 76.6 °F 71.8 °F 29.86 in West 5.0 mph 14.0 mph 85 % 0.00 in
10:40 76.6 °F 71.8 °F 29.86 in North 2.0 mph 18.0 mph 85 % 0.00 in
10:45 76.5 °F 72.0 °F 29.86 in SW 6.0 mph 18.0 mph 86 % 0.00 in
10:50 76.6 °F 72.1 °F 29.86 in West 6.0 mph 12.0 mph 86 % 0.00 in
10:55 76.6 °F 71.8 °F 29.86 in SW 3.0 mph 15.0 mph 85 % 0.00 in
11:00 76.8 °F 72.3 °F 29.86 in WSW 1.0 mph 15.0 mph 86 % 0.00 in
11:05 77.2 °F 72.3 °F 29.86 in SW 7.0 mph 16.0 mph 85 % 0.00 in
11:10 77.7 °F 72.5 °F 29.86 in NW 2.0 mph 16.0 mph 84 % 0.00 in
11:15 78.3 °F 72.7 °F 29.86 in West 2.0 mph 16.0 mph 83 % 0.00 in
11:20 78.6 °F 72.7 °F 29.86 in NW 4.0 mph 12.0 mph 82 % 0.00 in
11:25 78.6 °F 72.3 °F 29.86 in WNW 5.0 mph 12.0 mph 81 % 0.00 in
11:26 78.6 °F 72.3 °F 29.86 in SW 4.0 mph 12.0 mph 81 % 0.00 in
11:31 78.4 °F 72.5 °F 29.86 in SW 6.0 mph 12.0 mph 82 % 0.00 in
11:36 78.6 °F 72.3 °F 29.86 in SW 2.0 mph 10.0 mph 81 % 0.00 in
11:41 78.6 °F 72.0 °F 29.87 in SSW 6.0 mph 10.0 mph 80 % 0.00 in
11:46 78.4 °F 71.8 °F 29.87 in WSW 2.0 mph 12.0 mph 80 % 0.00 in
11:51 78.6 °F 72.0 °F 29.86 in WSW 3.0 mph 12.0 mph 80 % 0.00 in
11:56 79.3 °F 72.7 °F 29.86 in SSW 1.0 mph 12.0 mph 80 % 0.00 in
11:58 79.9 °F 72.9 °F 29.86 in NW 6.0 mph 12.0 mph 79 % 0.00 in
12:03 80.2 °F 72.3 °F 29.86 in West 2.0 mph 13.0 mph 77 % 0.00 in
12:08 80.4 °F 72.5 °F 29.85 in North 3.0 mph 13.0 mph 77 % 0.00 in
12:13 81.0 °F 72.7 °F 29.85 in WSW 6.0 mph 21.0 mph 76 % 0.00 in
12:18 81.7 °F 72.1 °F 29.86 in SSW 4.0 mph 21.0 mph 73 % 0.00 in
12:24 81.1 °F 71.2 °F 29.85 in West 4.0 mph 21.0 mph 72 % 0.00 in
12:29 81.1 °F 71.2 °F 29.85 in South 4.0 mph 11.0 mph 72 % 0.00 in
12:34 81.3 °F 71.4 °F 29.84 in West 4.0 mph 10.0 mph 72 % 0.00 in
12:39 81.9 °F 72.0 °F 29.84 in WNW 4.0 mph 12.0 mph 72 % 0.00 in
12:44 82.0 °F 71.8 °F 29.84 in West 4.0 mph 12.0 mph 71 % 0.00 in
12:49 82.4 °F 71.6 °F 29.84 in SSW 2.0 mph 12.0 mph 70 % 0.00 in
12:54 82.8 °F 72.0 °F 29.84 in WSW 2.0 mph 9.0 mph 70 % 0.00 in
12:59 82.8 °F 71.6 °F 29.84 in SW 4.0 mph 9.0 mph 69 % 0.00 in
13:04 82.6 °F 70.9 °F 29.84 in NNW 3.0 mph 9.0 mph 68 % 0.00 in
13:09 82.0 °F 71.2 °F 29.84 in WSW 3.0 mph 12.0 mph 70 % 0.00 in
13:14 81.9 °F 71.6 °F 29.84 in North 3.0 mph 12.0 mph 71 % 0.00 in
13:19 81.9 °F 72.0 °F 29.84 in NNW 2.0 mph 12.0 mph 72 % 0.00 in
13:24 82.0 °F 71.8 °F 29.84 in SW 2.0 mph 4.0 mph 71 % 0.00 in
13:29 82.0 °F 71.2 °F 29.84 in North 4.0 mph 7.0 mph 70 % 0.00 in
13:34 82.0 °F 70.9 °F 29.84 in WNW 2.0 mph 9.0 mph 69 % 0.00 in
13:39 81.9 °F 70.3 °F 29.84 in SW 1.0 mph 9.0 mph 68 % 0.00 in
13:44 81.7 °F 70.5 °F 29.83 in WNW 2.0 mph 9.0 mph 69 % 0.00 in
13:49 81.7 °F 71.8 °F 29.83 in SW 1.0 mph 6.0 mph 72 % 0.00 in
13:54 82.0 °F 70.9 °F 29.83 in WNW 2.0 mph 6.0 mph 69 % 0.00 in
13:59 81.7 °F 71.4 °F 29.83 in WNW 2.0 mph 6.0 mph 71 % 0.00 in
14:04 82.0 °F 70.9 °F 29.83 in WNW 4.0 mph 6.0 mph 69 % 0.00 in
14:09 82.2 °F 71.1 °F 29.83 in WNW 3.0 mph 6.0 mph 69 % 0.00 in
14:14 82.4 °F 71.6 °F 29.83 in WNW 1.0 mph 6.0 mph 70 % 0.00 in
14:19 82.8 °F 71.1 °F 29.83 in NNW 4.0 mph 5.0 mph 68 % 0.00 in
14:24 82.9 °F 71.8 °F 29.83 in West 2.0 mph 4.0 mph 69 % 0.00 in
14:29 83.5 °F 71.4 °F 29.83 in NW 2.0 mph 4.0 mph 67 % 0.00 in
14:34 83.7 °F 71.6 °F 29.83 in SW 2.0 mph 7.0 mph 67 % 0.00 in
14:39 83.1 °F 71.1 °F 29.83 in West 3.0 mph 7.0 mph 67 % 0.00 in
14:44 82.8 °F 70.7 °F 29.83 in NW 2.0 mph 7.0 mph 67 % 0.00 in
14:49 82.0 °F 70.3 °F 29.83 in NNE 3.0 mph 7.0 mph 68 % 0.00 in
14:54 81.9 °F 70.7 °F 29.83 in NW 2.0 mph 7.0 mph 69 % 0.00 in
14:59 81.7 °F 70.2 °F 29.84 in North 8.0 mph 9.0 mph 68 % 0.00 in
15:04 81.3 °F 67.5 °F 29.84 in North 14.0 mph 14.0 mph 63 % 0.00 in
15:09 80.6 °F 64.4 °F 29.85 in NW 8.0 mph 16.0 mph 58 % 0.00 in
15:14 80.4 °F 62.8 °F 29.86 in NW 10.0 mph 19.0 mph 55 % 0.00 in
15:19 80.4 °F 61.7 °F 29.86 in North 9.0 mph 19.0 mph 53 % 0.00 in
15:24 80.4 °F 61.2 °F 29.86 in NNE 11.0 mph 19.0 mph 52 % 0.00 in
15:29 80.4 °F 59.0 °F 29.86 in NW 11.0 mph 18.0 mph 48 % 0.00 in
15:34 80.2 °F 56.3 °F 29.87 in NNE 17.0 mph 18.0 mph 44 % 0.00 in
15:39 79.9 °F 54.7 °F 29.87 in North 7.0 mph 22.0 mph 42 % 0.00 in
15:44 79.7 °F 54.5 °F 29.87 in NW 5.0 mph 22.0 mph 42 % 0.00 in
15:49 79.2 °F 52.7 °F 29.88 in NNW 8.0 mph 22.0 mph 40 % 0.00 in
15:54 78.6 °F 52.3 °F 29.88 in NNE 17.0 mph 18.0 mph 40 % 0.00 in
16:00 78.3 °F 51.3 °F 29.89 in NW 16.0 mph 18.0 mph 39 % 0.00 in
16:05 77.7 °F 52.2 °F 29.89 in WNW 5.0 mph 20.0 mph 41 % 0.00 in
16:10 77.2 °F 51.1 °F 29.89 in NNW 10.0 mph 20.0 mph 40 % 0.00 in
16:15 76.8 °F 52.0 °F 29.90 in NNE 7.0 mph 21.0 mph 42 % 0.00 in
16:20 76.6 °F 51.8 °F 29.90 in WNW 11.0 mph 21.0 mph 42 % 0.00 in
16:30 76.1 °F 52.0 °F 29.91 in North 6.0 mph 19.0 mph 43 % 0.00 in
16:35 75.7 °F 51.1 °F 29.91 in NW 17.0 mph 19.0 mph 42 % 0.00 in
16:40 75.6 °F 51.4 °F 29.91 in NW 11.0 mph 21.0 mph 43 % 0.00 in
16:45 75.4 °F 51.3 °F 29.92 in NW 7.0 mph 21.0 mph 43 % 0.00 in
16:50 75.0 °F 51.6 °F 29.92 in NNW 13.0 mph 21.0 mph 44 % 0.00 in
16:55 74.8 °F 51.4 °F 29.93 in NW 5.0 mph 21.0 mph 44 % 0.00 in
17:00 74.5 °F 51.1 °F 29.93 in NW 7.0 mph 16.0 mph 44 % 0.00 in
17:05 74.1 °F 50.9 °F 29.94 in NW 2.0 mph 16.0 mph 44 % 0.00 in
17:10 73.8 °F 51.6 °F 29.94 in NNW 5.0 mph 15.0 mph 46 % 0.00 in
17:15 73.4 °F 52.0 °F 29.94 in NNW 5.0 mph 11.0 mph 47 % 0.00 in
17:20 73.0 °F 51.6 °F 29.95 in North 9.0 mph 11.0 mph 47 % 0.00 in
17:25 72.7 °F 51.8 °F 29.95 in NNW 2.0 mph 11.0 mph 48 % 0.00 in
17:31 72.3 °F 51.4 °F 29.96 in NW 5.0 mph 12.0 mph 48 % 0.00 in
17:36 72.1 °F 51.4 °F 29.96 in NW 9.0 mph 13.0 mph 48 % 0.00 in
17:41 71.8 °F 51.1 °F 29.96 in NW 7.0 mph 13.0 mph 48 % 0.00 in
17:46 71.4 °F 51.3 °F 29.97 in NNE 6.0 mph 13.0 mph 49 % 0.00 in
17:51 71.1 °F 50.9 °F 29.97 in NNE 5.0 mph 13.0 mph 49 % 0.00 in
17:56 70.9 °F 50.7 °F 29.98 in NNE 6.0 mph 13.0 mph 49 % 0.00 in
18:01 70.5 °F 50.4 °F 29.98 in North 6.0 mph 13.0 mph 49 % 0.00 in
18:06 70.2 °F 50.2 °F 29.99 in NNW 10.0 mph 15.0 mph 49 % 0.00 in
18:11 70.0 °F 50.5 °F 29.99 in NW 3.0 mph 15.0 mph 50 % 0.00 in
18:16 69.6 °F 49.6 °F 29.99 in NW 6.0 mph 15.0 mph 49 % 0.00 in
18:21 69.6 °F 49.6 °F 30.00 in North 7.0 mph 15.0 mph 49 % 0.00 in
18:26 69.4 °F 49.5 °F 30.00 in NNE 8.0 mph 15.0 mph 49 % 0.00 in
18:31 69.3 °F 49.3 °F 30.00 in NNW 11.0 mph 15.0 mph 49 % 0.00 in
18:36 69.1 °F 49.1 °F 30.01 in NW 5.0 mph 13.0 mph 49 % 0.00 in
18:41 68.7 °F 48.7 °F 30.01 in NNW 4.0 mph 13.0 mph 49 % 0.00 in
18:46 68.7 °F 49.3 °F 30.01 in NW 4.0 mph 13.0 mph 50 % 0.00 in
18:51 68.4 °F 48.9 °F 30.02 in NW 5.0 mph 11.0 mph 50 % 0.00 in
18:56 68.4 °F 49.5 °F 30.02 in North 8.0 mph 11.0 mph 51 % 0.00 in
19:01 68.0 °F 49.3 °F 30.03 in NE 6.0 mph 12.0 mph 51 % 0.00 in
19:06 67.8 °F 48.6 °F 30.03 in North 6.0 mph 15.0 mph 50 % 0.00 in
19:11 67.8 °F 48.6 °F 30.03 in NNE 11.0 mph 17.0 mph 50 % 0.00 in
19:16 67.8 °F 48.6 °F 30.04 in NNW 8.0 mph 18.0 mph 50 % 0.00 in
19:21 67.6 °F 48.4 °F 30.04 in NW 11.0 mph 18.0 mph 50 % 0.00 in
19:26 67.5 °F 48.2 °F 30.05 in NNE 13.0 mph 18.0 mph 50 % 0.00 in
19:31 67.3 °F 48.0 °F 30.05 in NW 7.0 mph 18.0 mph 50 % 0.00 in
19:36 66.9 °F 48.2 °F 30.06 in North 12.0 mph 18.0 mph 51 % 0.00 in
19:41 66.7 °F 48.0 °F 30.06 in NW 9.0 mph 18.0 mph 51 % 0.00 in
19:46 66.7 °F 48.0 °F 30.06 in NNW 7.0 mph 16.0 mph 51 % 0.00 in
19:51 66.6 °F 47.8 °F 30.06 in NNW 7.0 mph 21.0 mph 51 % 0.00 in
19:56 66.2 °F 47.5 °F 30.07 in NW 5.0 mph 21.0 mph 51 % 0.00 in
20:01 66.0 °F 47.8 °F 30.07 in NNW 6.0 mph 21.0 mph 52 % 0.00 in
20:06 65.8 °F 47.7 °F 30.07 in NE 5.0 mph 18.0 mph 52 % 0.00 in
20:11 65.7 °F 48.0 °F 30.08 in NNW 4.0 mph 18.0 mph 53 % 0.00 in
20:16 65.5 °F 47.8 °F 30.08 in NNW 5.0 mph 16.0 mph 53 % 0.00 in
20:21 65.1 °F 48.0 °F 30.08 in North 6.0 mph 18.0 mph 54 % 0.00 in
20:26 64.9 °F 47.8 °F 30.09 in NW 6.0 mph 18.0 mph 54 % 0.00 in
20:31 64.8 °F 48.2 °F 30.09 in NNW 3.0 mph 18.0 mph 55 % 0.00 in
20:36 64.6 °F 48.0 °F 30.10 in WNW 8.0 mph 13.0 mph 55 % 0.00 in
20:41 64.2 °F 48.2 °F 30.10 in NNE 3.0 mph 15.0 mph 56 % 0.00 in
20:46 64.0 °F 48.0 °F 30.10 in NNW 7.0 mph 15.0 mph 56 % 0.00 in
20:51 63.9 °F 47.8 °F 30.11 in NW 5.0 mph 15.0 mph 56 % 0.00 in
20:56 63.3 °F 47.3 °F 30.11 in NW 6.0 mph 13.0 mph 56 % 0.00 in
21:01 63.1 °F 47.1 °F 30.11 in NW 7.0 mph 15.0 mph 56 % 0.00 in
21:06 63.0 °F 46.9 °F 30.12 in NNW 12.0 mph 16.0 mph 56 % 0.00 in
21:12 62.8 °F 46.9 °F 30.12 in NNW 11.0 mph 18.0 mph 56 % 0.00 in
21:18 62.4 °F 46.6 °F 30.12 in ENE 10.0 mph 19.0 mph 56 % 0.00 in
21:23 62.2 °F 46.8 °F 30.12 in North 12.0 mph 19.0 mph 57 % 0.00 in
21:24 62.2 °F 46.8 °F 30.12 in NNW 13.0 mph 19.0 mph 57 % 0.00 in
21:25 62.2 °F 46.8 °F 30.12 in North 10.0 mph 19.0 mph 57 % 0.00 in
21:27 62.1 °F 46.6 °F 30.12 in NW 4.0 mph 19.0 mph 57 % 0.00 in
21:32 61.9 °F 46.4 °F 30.12 in NNW 9.0 mph 17.0 mph 57 % 0.00 in
21:34 61.7 °F 46.4 °F 30.13 in NNW 12.0 mph 17.0 mph 57 % 0.00 in
21:35 61.7 °F 46.4 °F 30.13 in North 8.0 mph 21.0 mph 57 % 0.00 in
21:40 61.3 °F 46.4 °F 30.13 in North 8.0 mph 21.0 mph 58 % 0.00 in
21:45 61.2 °F 46.2 °F 30.13 in NNW 5.0 mph 21.0 mph 58 % 0.00 in
21:50 61.0 °F 46.6 °F 30.13 in NNW 5.0 mph 16.0 mph 59 % 0.00 in
21:55 60.8 °F 45.9 °F 30.14 in NW 5.0 mph 17.0 mph 58 % 0.00 in
22:00 60.6 °F 46.2 °F 30.14 in North 6.0 mph 17.0 mph 59 % 0.00 in
22:05 60.4 °F 46.0 °F 30.15 in North 5.0 mph 17.0 mph 59 % 0.00 in
22:10 60.3 °F 45.9 °F 30.14 in NNW 15.0 mph 15.0 mph 59 % 0.00 in
22:15 60.1 °F 45.7 °F 30.15 in NNW 7.0 mph 17.0 mph 59 % 0.00 in
22:20 59.7 °F 45.3 °F 30.16 in NNW 2.0 mph 17.0 mph 59 % 0.00 in
22:25 59.5 °F 45.7 °F 30.16 in NNW 3.0 mph 17.0 mph 60 % 0.00 in
22:30 59.4 °F 45.5 °F 30.16 in NW 5.0 mph 16.0 mph 60 % 0.00 in
22:40 59.0 °F 45.1 °F 30.17 in SSW 5.0 mph 16.0 mph 60 % 0.00 in
22:50 58.6 °F 44.8 °F 30.17 in NNW 3.0 mph 17.0 mph 60 % 0.00 in
22:55 58.5 °F 44.6 °F 30.17 in North 4.0 mph 17.0 mph 60 % 0.00 in
23:00 58.3 °F 44.4 °F 30.17 in NNW 8.0 mph 17.0 mph 60 % 0.00 in
23:05 57.9 °F 44.1 °F 30.18 in NNW 7.0 mph 18.0 mph 60 % 0.00 in
23:15 57.7 °F 44.4 °F 30.19 in NW 7.0 mph 18.0 mph 61 % 0.00 in
23:20 57.6 °F 44.2 °F 30.19 in NNW 3.0 mph 18.0 mph 61 % 0.00 in
23:25 57.4 °F 44.1 °F 30.19 in NNW 3.0 mph 18.0 mph 61 % 0.00 in
23:30 57.0 °F 43.7 °F 30.19 in NNW 5.0 mph 18.0 mph 61 % 0.00 in
23:40 56.8 °F 43.5 °F 30.20 in NNE 6.0 mph 16.0 mph 61 % 0.00 in
23:45 56.7 °F 43.3 °F 30.20 in North 8.0 mph 16.0 mph 61 % 0.00 in
23:51 56.5 °F 43.7 °F 30.20 in North 4.0 mph 16.0 mph 62 % 0.00 in
23:55 56.3 °F 43.0 °F 30.20 in NNW 3.0 mph 16.0 mph 61 % 0.00 in
Spring, Texas: Villages of Bridgestone
Compliments of Weather Underground - 3 mb

Script developed by  Jim McMurry - jmcmurry@mwt.net Adapted for the template by  Wim van der Kuil - Leuven-Template.eu

You find our weather info also at:

UK Metoffice

WeatherCloud

Weather Underground

Mid-South Weather Network

AWEKAS

Citizen Weather Observer Program (CWOP)

HAMweather, WeatherForYou, PWS Weather

Equipment we use:

Weather-station
Davis Vantage Vue

Weather-program
Meteohub

Weather-server
Debian 7.9 x86 (Guest)

Provider
DreamHost

Davis Vantage Vue

Meteohub

Debian 7.9 x86 (Guest)

DreamHost